sensor_id;sensor_type;location;lat;lon;timestamp;temperature;humidity
27797;DHT22;15177;50.844;4.412;2023-09-19T00:00:38;17.30;99.90
27797;DHT22;15177;50.844;4.412;2023-09-19T00:03:06;17.20;99.90
27797;DHT22;15177;50.844;4.412;2023-09-19T00:05:35;17.20;99.90
27797;DHT22;15177;50.844;4.412;2023-09-19T00:08:01;17.20;99.90
27797;DHT22;15177;50.844;4.412;2023-09-19T00:10:31;17.20;99.90
27797;DHT22;15177;50.844;4.412;2023-09-19T00:12:58;17.10;99.90
27797;DHT22;15177;50.844;4.412;2023-09-19T00:15:31;17.20;99.90
27797;DHT22;15177;50.844;4.412;2023-09-19T00:18:01;17.20;99.90
27797;DHT22;15177;50.844;4.412;2023-09-19T00:20:26;17.10;99.90
27797;DHT22;15177;50.844;4.412;2023-09-19T00:22:53;17.00;99.90
27797;DHT22;15177;50.844;4.412;2023-09-19T00:25:20;17.00;99.90
27797;DHT22;15177;50.844;4.412;2023-09-19T00:27:46;17.10;99.90
27797;DHT22;15177;50.844;4.412;2023-09-19T00:30:16;17.10;99.90
27797;DHT22;15177;50.844;4.412;2023-09-19T00:32:47;17.10;99.90
27797;DHT22;15177;50.844;4.412;2023-09-19T00:35:13;17.10;99.90
27797;DHT22;15177;50.844;4.412;2023-09-19T00:37:42;17.10;99.90
27797;DHT22;15177;50.844;4.412;2023-09-19T00:40:09;17.10;99.90
27797;DHT22;15177;50.844;4.412;2023-09-19T00:42:48;17.10;99.90
27797;DHT22;15177;50.844;4.412;2023-09-19T00:45:16;17.00;99.90
27797;DHT22;15177;50.844;4.412;2023-09-19T00:47:47;17.00;99.90
27797;DHT22;15177;50.844;4.412;2023-09-19T00:50:21;17.00;99.90
27797;DHT22;15177;50.844;4.412;2023-09-19T00:52:48;17.10;99.90
27797;DHT22;15177;50.844;4.412;2023-09-19T00:55:16;17.10;99.90
27797;DHT22;15177;50.844;4.412;2023-09-19T00:57:42;17.00;99.90
27797;DHT22;15177;50.844;4.412;2023-09-19T01:00:10;17.10;99.90
27797;DHT22;15177;50.844;4.412;2023-09-19T01:02:44;17.00;99.90
27797;DHT22;15177;50.844;4.412;2023-09-19T01:05:10;17.00;99.90
27797;DHT22;15177;50.844;4.412;2023-09-19T01:07:36;16.90;99.90
27797;DHT22;15177;50.844;4.412;2023-09-19T01:10:04;16.80;99.90
27797;DHT22;15177;50.844;4.412;2023-09-19T01:13:04;16.80;99.90
27797;DHT22;15177;50.844;4.412;2023-09-19T01:26:07;17.00;99.90
27797;DHT22;15177;50.844;4.412;2023-09-19T01:32:03;16.80;99.90
27797;DHT22;15177;50.844;4.412;2023-09-19T01:34:51;17.00;99.90
27797;DHT22;15177;50.844;4.412;2023-09-19T01:37:19;16.90;99.90
27797;DHT22;15177;50.844;4.412;2023-09-19T01:39:47;16.90;99.90
27797;DHT22;15177;50.844;4.412;2023-09-19T01:42:24;17.00;99.90
27797;DHT22;15177;50.844;4.412;2023-09-19T01:45:03;16.80;99.90
27797;DHT22;15177;50.844;4.412;2023-09-19T01:47:34;16.80;99.90
27797;DHT22;15177;50.844;4.412;2023-09-19T01:52:42;16.90;99.90
27797;DHT22;15177;50.844;4.412;2023-09-19T01:55:11;16.90;99.90
27797;DHT22;15177;50.844;4.412;2023-09-19T01:57:58;16.90;99.90
27797;DHT22;15177;50.844;4.412;2023-09-19T02:00:27;16.90;99.90
27797;DHT22;15177;50.844;4.412;2023-09-19T02:02:56;16.90;99.90
27797;DHT22;15177;50.844;4.412;2023-09-19T02:05:24;16.80;99.90
27797;DHT22;15177;50.844;4.412;2023-09-19T02:07:51;16.80;99.90
27797;DHT22;15177;50.844;4.412;2023-09-19T02:10:18;16.70;99.90
27797;DHT22;15177;50.844;4.412;2023-09-19T02:12:44;16.80;99.90
27797;DHT22;15177;50.844;4.412;2023-09-19T02:15:10;16.70;99.90
27797;DHT22;15177;50.844;4.412;2023-09-19T02:17:36;16.70;99.90
27797;DHT22;15177;50.844;4.412;2023-09-19T02:20:02;16.80;99.90
27797;DHT22;15177;50.844;4.412;2023-09-19T02:22:29;16.80;99.90
27797;DHT22;15177;50.844;4.412;2023-09-19T02:24:55;16.80;99.90
27797;DHT22;15177;50.844;4.412;2023-09-19T02:27:24;16.90;99.90
27797;DHT22;15177;50.844;4.412;2023-09-19T02:29:49;16.80;99.90
27797;DHT22;15177;50.844;4.412;2023-09-19T02:32:15;16.80;99.90
27797;DHT22;15177;50.844;4.412;2023-09-19T02:34:43;16.80;99.90
27797;DHT22;15177;50.844;4.412;2023-09-19T02:37:10;16.80;99.90
27797;DHT22;15177;50.844;4.412;2023-09-19T02:39:35;16.80;99.90
27797;DHT22;15177;50.844;4.412;2023-09-19T02:42:01;16.80;99.90
27797;DHT22;15177;50.844;4.412;2023-09-19T02:44:29;16.90;99.90
27797;DHT22;15177;50.844;4.412;2023-09-19T02:46:55;16.90;99.90
27797;DHT22;15177;50.844;4.412;2023-09-19T02:49:22;16.90;99.90
27797;DHT22;15177;50.844;4.412;2023-09-19T02:51:48;16.80;99.90
27797;DHT22;15177;50.844;4.412;2023-09-19T02:54:14;16.80;99.90
27797;DHT22;15177;50.844;4.412;2023-09-19T02:56:41;16.70;99.90
27797;DHT22;15177;50.844;4.412;2023-09-19T02:59:07;16.70;99.90
27797;DHT22;15177;50.844;4.412;2023-09-19T03:01:35;16.70;99.90
27797;DHT22;15177;50.844;4.412;2023-09-19T03:04:02;16.70;99.90
27797;DHT22;15177;50.844;4.412;2023-09-19T03:06:28;16.80;99.90
27797;DHT22;15177;50.844;4.412;2023-09-19T03:08:56;16.80;99.90
27797;DHT22;15177;50.844;4.412;2023-09-19T03:11:22;16.90;99.90
27797;DHT22;15177;50.844;4.412;2023-09-19T03:13:52;16.80;99.90
27797;DHT22;15177;50.844;4.412;2023-09-19T03:16:18;16.80;99.90
27797;DHT22;15177;50.844;4.412;2023-09-19T03:18:47;16.80;99.90
27797;DHT22;15177;50.844;4.412;2023-09-19T03:21:15;16.70;99.90
27797;DHT22;15177;50.844;4.412;2023-09-19T03:23:41;16.70;99.90
27797;DHT22;15177;50.844;4.412;2023-09-19T03:26:06;16.70;99.90
27797;DHT22;15177;50.844;4.412;2023-09-19T03:28:33;16.70;99.90
27797;DHT22;15177;50.844;4.412;2023-09-19T03:31:04;16.70;99.90
27797;DHT22;15177;50.844;4.412;2023-09-19T03:33:30;16.70;99.90
27797;DHT22;15177;50.844;4.412;2023-09-19T03:36:00;16.80;99.90
27797;DHT22;15177;50.844;4.412;2023-09-19T03:38:27;16.70;99.90
27797;DHT22;15177;50.844;4.412;2023-09-19T03:40:54;16.70;99.90
27797;DHT22;15177;50.844;4.412;2023-09-19T03:43:19;16.60;99.90
27797;DHT22;15177;50.844;4.412;2023-09-19T03:45:45;16.60;99.90
27797;DHT22;15177;50.844;4.412;2023-09-19T03:48:12;16.60;99.90
27797;DHT22;15177;50.844;4.412;2023-09-19T03:50:38;16.50;99.90
27797;DHT22;15177;50.844;4.412;2023-09-19T03:53:04;16.50;99.90
27797;DHT22;15177;50.844;4.412;2023-09-19T03:55:30;16.40;99.90
27797;DHT22;15177;50.844;4.412;2023-09-19T03:57:56;16.40;99.90
27797;DHT22;15177;50.844;4.412;2023-09-19T04:00:22;16.40;99.90
27797;DHT22;15177;50.844;4.412;2023-09-19T04:02:51;16.30;99.90
27797;DHT22;15177;50.844;4.412;2023-09-19T04:05:17;16.30;99.90
27797;DHT22;15177;50.844;4.412;2023-09-19T04:07:43;16.20;99.90
27797;DHT22;15177;50.844;4.412;2023-09-19T04:10:09;16.20;99.90
27797;DHT22;15177;50.844;4.412;2023-09-19T04:12:37;16.20;99.90
27797;DHT22;15177;50.844;4.412;2023-09-19T04:15:04;16.20;99.90
27797;DHT22;15177;50.844;4.412;2023-09-19T04:17:30;16.20;99.90
27797;DHT22;15177;50.844;4.412;2023-09-19T04:19:58;16.20;99.90
27797;DHT22;15177;50.844;4.412;2023-09-19T04:22:24;16.20;99.90
27797;DHT22;15177;50.844;4.412;2023-09-19T04:24:50;16.20;99.90
27797;DHT22;15177;50.844;4.412;2023-09-19T04:27:15;16.20;99.90
27797;DHT22;15177;50.844;4.412;2023-09-19T04:29:41;16.10;99.90
27797;DHT22;15177;50.844;4.412;2023-09-19T04:32:07;16.20;99.90
27797;DHT22;15177;50.844;4.412;2023-09-19T04:34:33;16.10;99.90
27797;DHT22;15177;50.844;4.412;2023-09-19T04:37:00;16.20;99.90
27797;DHT22;15177;50.844;4.412;2023-09-19T04:39:26;16.10;99.90
27797;DHT22;15177;50.844;4.412;2023-09-19T04:41:52;16.10;99.90
27797;DHT22;15177;50.844;4.412;2023-09-19T04:44:18;16.10;99.90
27797;DHT22;15177;50.844;4.412;2023-09-19T04:46:44;15.90;99.90
27797;DHT22;15177;50.844;4.412;2023-09-19T04:49:12;16.00;99.90
27797;DHT22;15177;50.844;4.412;2023-09-19T04:51:38;16.00;99.90
27797;DHT22;15177;50.844;4.412;2023-09-19T04:54:04;16.00;99.90
27797;DHT22;15177;50.844;4.412;2023-09-19T04:56:29;15.90;99.90
27797;DHT22;15177;50.844;4.412;2023-09-19T04:58:56;15.90;99.90
27797;DHT22;15177;50.844;4.412;2023-09-19T05:01:24;15.80;99.90
27797;DHT22;15177;50.844;4.412;2023-09-19T05:03:49;15.90;99.90
27797;DHT22;15177;50.844;4.412;2023-09-19T05:06:21;15.90;99.90
27797;DHT22;15177;50.844;4.412;2023-09-19T05:08:50;15.90;99.90
27797;DHT22;15177;50.844;4.412;2023-09-19T05:11:18;16.00;99.90
27797;DHT22;15177;50.844;4.412;2023-09-19T05:13:44;15.90;99.90
27797;DHT22;15177;50.844;4.412;2023-09-19T05:16:09;16.00;99.90
27797;DHT22;15177;50.844;4.412;2023-09-19T05:18:38;15.90;99.90
27797;DHT22;15177;50.844;4.412;2023-09-19T05:21:04;15.90;99.90
27797;DHT22;15177;50.844;4.412;2023-09-19T05:23:29;15.90;99.90
27797;DHT22;15177;50.844;4.412;2023-09-19T05:25:55;15.80;99.90
27797;DHT22;15177;50.844;4.412;2023-09-19T05:28:22;15.80;99.90
27797;DHT22;15177;50.844;4.412;2023-09-19T05:30:48;15.80;99.90
27797;DHT22;15177;50.844;4.412;2023-09-19T05:33:14;15.80;99.90
27797;DHT22;15177;50.844;4.412;2023-09-19T05:35:40;15.80;99.90
27797;DHT22;15177;50.844;4.412;2023-09-19T05:38:07;15.80;99.90
27797;DHT22;15177;50.844;4.412;2023-09-19T05:40:38;15.80;99.90
27797;DHT22;15177;50.844;4.412;2023-09-19T05:43:06;15.90;99.90
27797;DHT22;15177;50.844;4.412;2023-09-19T05:45:31;15.80;99.90
27797;DHT22;15177;50.844;4.412;2023-09-19T05:48:08;15.90;99.90
27797;DHT22;15177;50.844;4.412;2023-09-19T05:50:35;15.90;99.90
27797;DHT22;15177;50.844;4.412;2023-09-19T05:53:01;15.90;99.90
27797;DHT22;15177;50.844;4.412;2023-09-19T05:55:27;15.90;99.90
27797;DHT22;15177;50.844;4.412;2023-09-19T05:57:54;16.00;99.90
27797;DHT22;15177;50.844;4.412;2023-09-19T06:00:20;15.90;99.90
27797;DHT22;15177;50.844;4.412;2023-09-19T06:02:51;16.00;99.90
27797;DHT22;15177;50.844;4.412;2023-09-19T06:05:18;16.10;99.90
27797;DHT22;15177;50.844;4.412;2023-09-19T06:07:43;16.00;99.90
27797;DHT22;15177;50.844;4.412;2023-09-19T06:10:09;16.00;99.90
27797;DHT22;15177;50.844;4.412;2023-09-19T06:12:45;16.10;99.90
27797;DHT22;15177;50.844;4.412;2023-09-19T06:15:14;16.10;99.90
27797;DHT22;15177;50.844;4.412;2023-09-19T06:17:52;16.30;99.90
27797;DHT22;15177;50.844;4.412;2023-09-19T06:20:22;16.30;99.90
27797;DHT22;15177;50.844;4.412;2023-09-19T06:22:49;16.30;99.90
27797;DHT22;15177;50.844;4.412;2023-09-19T06:25:16;16.30;99.90
27797;DHT22;15177;50.844;4.412;2023-09-19T06:27:49;16.40;99.90
27797;DHT22;15177;50.844;4.412;2023-09-19T06:30:17;16.50;99.90
27797;DHT22;15177;50.844;4.412;2023-09-19T06:32:44;16.60;99.90
27797;DHT22;15177;50.844;4.412;2023-09-19T06:35:14;16.70;99.90
27797;DHT22;15177;50.844;4.412;2023-09-19T06:37:41;16.80;99.90
27797;DHT22;15177;50.844;4.412;2023-09-19T06:40:11;17.00;99.90
27797;DHT22;15177;50.844;4.412;2023-09-19T06:42:43;17.10;99.90
27797;DHT22;15177;50.844;4.412;2023-09-19T06:45:13;17.20;99.90
27797;DHT22;15177;50.844;4.412;2023-09-19T06:47:44;17.40;99.90
27797;DHT22;15177;50.844;4.412;2023-09-19T06:50:10;17.50;99.90
27797;DHT22;15177;50.844;4.412;2023-09-19T06:52:42;17.60;99.90
27797;DHT22;15177;50.844;4.412;2023-09-19T06:55:08;17.70;99.90
27797;DHT22;15177;50.844;4.412;2023-09-19T06:57:39;17.80;99.90
27797;DHT22;15177;50.844;4.412;2023-09-19T07:00:09;17.90;99.90
27797;DHT22;15177;50.844;4.412;2023-09-19T07:02:44;18.00;99.90
27797;DHT22;15177;50.844;4.412;2023-09-19T07:05:11;18.30;99.90
27797;DHT22;15177;50.844;4.412;2023-09-19T07:07:37;18.50;99.90
27797;DHT22;15177;50.844;4.412;2023-09-19T07:10:03;18.60;99.90
27797;DHT22;15177;50.844;4.412;2023-09-19T07:12:37;18.90;99.90
27797;DHT22;15177;50.844;4.412;2023-09-19T07:15:03;19.10;99.90
27797;DHT22;15177;50.844;4.412;2023-09-19T07:17:31;19.40;99.90
27797;DHT22;15177;50.844;4.412;2023-09-19T07:19:58;19.60;99.90
27797;DHT22;15177;50.844;4.412;2023-09-19T07:22:26;20.10;99.90
27797;DHT22;15177;50.844;4.412;2023-09-19T07:24:52;20.40;99.90
27797;DHT22;15177;50.844;4.412;2023-09-19T07:27:18;20.90;99.90
27797;DHT22;15177;50.844;4.412;2023-09-19T07:29:43;21.10;99.90
27797;DHT22;15177;50.844;4.412;2023-09-19T07:32:11;21.60;99.90
27797;DHT22;15177;50.844;4.412;2023-09-19T07:34:37;22.20;99.90
27797;DHT22;15177;50.844;4.412;2023-09-19T07:37:07;22.80;99.90
27797;DHT22;15177;50.844;4.412;2023-09-19T07:39:33;23.10;99.90
27797;DHT22;15177;50.844;4.412;2023-09-19T07:41:59;23.20;99.90
27797;DHT22;15177;50.844;4.412;2023-09-19T07:44:25;23.40;99.90
27797;DHT22;15177;50.844;4.412;2023-09-19T07:46:54;23.70;99.90
27797;DHT22;15177;50.844;4.412;2023-09-19T07:49:20;23.80;99.90
27797;DHT22;15177;50.844;4.412;2023-09-19T07:51:46;23.90;99.90
27797;DHT22;15177;50.844;4.412;2023-09-19T07:54:12;24.00;99.90
27797;DHT22;15177;50.844;4.412;2023-09-19T07:56:38;24.30;99.90
27797;DHT22;15177;50.844;4.412;2023-09-19T07:59:04;24.20;99.90
27797;DHT22;15177;50.844;4.412;2023-09-19T08:01:30;24.30;99.90
27797;DHT22;15177;50.844;4.412;2023-09-19T08:03:56;24.30;99.90
27797;DHT22;15177;50.844;4.412;2023-09-19T08:06:22;24.50;99.90
27797;DHT22;15177;50.844;4.412;2023-09-19T08:08:51;24.70;99.90
27797;DHT22;15177;50.844;4.412;2023-09-19T08:11:19;24.90;99.90
27797;DHT22;15177;50.844;4.412;2023-09-19T08:13:46;25.30;99.90
27797;DHT22;15177;50.844;4.412;2023-09-19T08:16:15;25.40;99.90
27797;DHT22;15177;50.844;4.412;2023-09-19T08:18:41;25.40;99.90
27797;DHT22;15177;50.844;4.412;2023-09-19T08:21:11;25.30;99.90
27797;DHT22;15177;50.844;4.412;2023-09-19T08:23:37;25.40;99.90
27797;DHT22;15177;50.844;4.412;2023-09-19T08:26:04;25.60;99.90
27797;DHT22;15177;50.844;4.412;2023-09-19T08:28:34;25.80;99.90
27797;DHT22;15177;50.844;4.412;2023-09-19T08:31:04;25.70;99.90
27797;DHT22;15177;50.844;4.412;2023-09-19T08:33:33;26.00;99.90
27797;DHT22;15177;50.844;4.412;2023-09-19T08:36:00;26.30;99.10
27797;DHT22;15177;50.844;4.412;2023-09-19T08:38:26;26.40;98.70
27797;DHT22;15177;50.844;4.412;2023-09-19T08:41:00;26.40;98.20
27797;DHT22;15177;50.844;4.412;2023-09-19T08:43:29;26.30;98.10
27797;DHT22;15177;50.844;4.412;2023-09-19T08:46:13;26.70;97.30
27797;DHT22;15177;50.844;4.412;2023-09-19T08:48:46;26.50;96.90
27797;DHT22;15177;50.844;4.412;2023-09-19T08:51:24;26.70;96.20
27797;DHT22;15177;50.844;4.412;2023-09-19T08:54:17;26.60;96.00
27797;DHT22;15177;50.844;4.412;2023-09-19T08:56:46;26.70;95.40
27797;DHT22;15177;50.844;4.412;2023-09-19T08:59:13;26.40;95.50
27797;DHT22;15177;50.844;4.412;2023-09-19T09:01:40;26.20;95.40
27797;DHT22;15177;50.844;4.412;2023-09-19T09:04:17;26.40;95.70
27797;DHT22;15177;50.844;4.412;2023-09-19T09:06:45;26.60;95.50
27797;DHT22;15177;50.844;4.412;2023-09-19T09:09:14;26.70;94.40
27797;DHT22;15177;50.844;4.412;2023-09-19T09:11:40;26.70;94.50
27797;DHT22;15177;50.844;4.412;2023-09-19T09:14:07;26.80;94.20
27797;DHT22;15177;50.844;4.412;2023-09-19T09:16:33;26.50;94.30
27797;DHT22;15177;50.844;4.412;2023-09-19T09:19:01;26.50;94.20
27797;DHT22;15177;50.844;4.412;2023-09-19T09:21:27;26.40;94.20
27797;DHT22;15177;50.844;4.412;2023-09-19T09:23:54;26.00;94.70
27797;DHT22;15177;50.844;4.412;2023-09-19T09:26:42;25.80;95.10
27797;DHT22;15177;50.844;4.412;2023-09-19T09:29:15;25.10;96.00
27797;DHT22;15177;50.844;4.412;2023-09-19T09:31:41;24.80;97.30
27797;DHT22;15177;50.844;4.412;2023-09-19T09:34:08;24.50;97.30
27797;DHT22;15177;50.844;4.412;2023-09-19T09:36:39;24.40;97.90
27797;DHT22;15177;50.844;4.412;2023-09-19T09:39:07;24.30;98.30
27797;DHT22;15177;50.844;4.412;2023-09-19T09:41:44;24.30;98.50
27797;DHT22;15177;50.844;4.412;2023-09-19T09:44:16;24.00;98.70
27797;DHT22;15177;50.844;4.412;2023-09-19T09:46:48;23.70;99.80
27797;DHT22;15177;50.844;4.412;2023-09-19T09:49:24;23.70;99.70
27797;DHT22;15177;50.844;4.412;2023-09-19T09:52:03;23.60;99.90
27797;DHT22;15177;50.844;4.412;2023-09-19T09:54:34;23.40;99.90
27797;DHT22;15177;50.844;4.412;2023-09-19T09:57:07;23.20;99.90
27797;DHT22;15177;50.844;4.412;2023-09-19T09:59:58;22.80;99.90
27797;DHT22;15177;50.844;4.412;2023-09-19T10:02:42;22.40;99.90
27797;DHT22;15177;50.844;4.412;2023-09-19T10:05:19;22.30;99.90
27797;DHT22;15177;50.844;4.412;2023-09-19T10:07:46;22.50;99.90
27797;DHT22;15177;50.844;4.412;2023-09-19T10:13:08;22.80;99.90
27797;DHT22;15177;50.844;4.412;2023-09-19T10:15:38;22.80;99.90
27797;DHT22;15177;50.844;4.412;2023-09-19T10:18:06;23.00;99.90
27797;DHT22;15177;50.844;4.412;2023-09-19T10:20:36;23.50;99.90
27797;DHT22;15177;50.844;4.412;2023-09-19T10:23:11;24.00;99.90
27797;DHT22;15177;50.844;4.412;2023-09-19T10:25:43;24.50;99.90
27797;DHT22;15177;50.844;4.412;2023-09-19T10:28:13;25.10;98.80
27797;DHT22;15177;50.844;4.412;2023-09-19T10:30:52;25.40;97.00
27797;DHT22;15177;50.844;4.412;2023-09-19T10:33:20;25.50;97.00
27797;DHT22;15177;50.844;4.412;2023-09-19T10:35:52;25.60;96.50
27797;DHT22;15177;50.844;4.412;2023-09-19T10:38:19;25.60;96.20
27797;DHT22;15177;50.844;4.412;2023-09-19T10:40:49;25.80;96.10
27797;DHT22;15177;50.844;4.412;2023-09-19T10:43:17;25.70;95.60
27797;DHT22;15177;50.844;4.412;2023-09-19T10:45:44;25.80;95.70
27797;DHT22;15177;50.844;4.412;2023-09-19T10:48:10;26.10;95.40
27797;DHT22;15177;50.844;4.412;2023-09-19T10:50:53;26.20;95.30
27797;DHT22;15177;50.844;4.412;2023-09-19T10:53:26;26.50;94.80
27797;DHT22;15177;50.844;4.412;2023-09-19T10:55:57;26.40;94.00
27797;DHT22;15177;50.844;4.412;2023-09-19T10:58:29;26.10;94.50
27797;DHT22;15177;50.844;4.412;2023-09-19T11:00:58;25.60;95.30
27797;DHT22;15177;50.844;4.412;2023-09-19T11:03:31;24.90;96.50
27797;DHT22;15177;50.844;4.412;2023-09-19T11:06:04;24.30;97.80
27797;DHT22;15177;50.844;4.412;2023-09-19T11:08:57;24.00;98.80
27797;DHT22;15177;50.844;4.412;2023-09-19T11:11:49;23.50;99.90
27797;DHT22;15177;50.844;4.412;2023-09-19T11:30:49;22.70;99.90
27797;DHT22;15177;50.844;4.412;2023-09-19T11:36:08;22.60;99.90
27797;DHT22;15177;50.844;4.412;2023-09-19T11:49:19;22.60;99.90
27797;DHT22;15177;50.844;4.412;2023-09-19T11:51:50;22.60;99.90
27797;DHT22;15177;50.844;4.412;2023-09-19T11:54:19;22.60;99.90
27797;DHT22;15177;50.844;4.412;2023-09-19T11:56:51;22.60;99.90
27797;DHT22;15177;50.844;4.412;2023-09-19T11:59:20;22.50;99.90
27797;DHT22;15177;50.844;4.412;2023-09-19T12:01:53;22.30;99.90
27797;DHT22;15177;50.844;4.412;2023-09-19T12:07:14;22.30;99.90
27797;DHT22;15177;50.844;4.412;2023-09-19T12:09:48;22.30;99.90
27797;DHT22;15177;50.844;4.412;2023-09-19T12:12:25;22.30;99.90
27797;DHT22;15177;50.844;4.412;2023-09-19T12:14:56;22.30;99.90
27797;DHT22;15177;50.844;4.412;2023-09-19T12:17:37;22.40;99.90
27797;DHT22;15177;50.844;4.412;2023-09-19T12:20:05;22.30;99.90
27797;DHT22;15177;50.844;4.412;2023-09-19T12:22:42;22.20;99.90
27797;DHT22;15177;50.844;4.412;2023-09-19T12:25:09;22.00;99.90
27797;DHT22;15177;50.844;4.412;2023-09-19T12:27:46;21.90;99.90
27797;DHT22;15177;50.844;4.412;2023-09-19T12:30:13;21.90;99.90
27797;DHT22;15177;50.844;4.412;2023-09-19T12:32:48;21.90;99.90
27797;DHT22;15177;50.844;4.412;2023-09-19T12:35:31;21.90;99.90
27797;DHT22;15177;50.844;4.412;2023-09-19T12:38:00;22.10;99.90
27797;DHT22;15177;50.844;4.412;2023-09-19T12:40:26;22.20;99.90
27797;DHT22;15177;50.844;4.412;2023-09-19T12:42:54;22.30;99.90
27797;DHT22;15177;50.844;4.412;2023-09-19T12:45:29;22.40;99.90
27797;DHT22;15177;50.844;4.412;2023-09-19T12:48:21;22.60;99.90
27797;DHT22;15177;50.844;4.412;2023-09-19T12:51:07;22.60;99.90
27797;DHT22;15177;50.844;4.412;2023-09-19T12:53:39;22.50;99.90
27797;DHT22;15177;50.844;4.412;2023-09-19T12:56:12;22.60;99.90
27797;DHT22;15177;50.844;4.412;2023-09-19T13:01:21;22.50;99.90
27797;DHT22;15177;50.844;4.412;2023-09-19T13:04:21;22.50;99.90
27797;DHT22;15177;50.844;4.412;2023-09-19T13:06:55;22.50;99.90
27797;DHT22;15177;50.844;4.412;2023-09-19T13:09:26;22.40;99.90
27797;DHT22;15177;50.844;4.412;2023-09-19T13:12:05;22.40;99.90
27797;DHT22;15177;50.844;4.412;2023-09-19T13:15:08;22.40;99.90
27797;DHT22;15177;50.844;4.412;2023-09-19T13:17:46;22.30;99.90
27797;DHT22;15177;50.844;4.412;2023-09-19T13:20:26;22.20;99.90
27797;DHT22;15177;50.844;4.412;2023-09-19T13:22:57;22.00;99.90
27797;DHT22;15177;50.844;4.412;2023-09-19T13:25:38;22.10;99.90
27797;DHT22;15177;50.844;4.412;2023-09-19T13:28:05;22.10;99.90
27797;DHT22;15177;50.844;4.412;2023-09-19T13:30:31;22.30;99.90
27797;DHT22;15177;50.844;4.412;2023-09-19T13:33:09;22.40;99.90
27797;DHT22;15177;50.844;4.412;2023-09-19T13:35:36;22.60;99.90
27797;DHT22;15177;50.844;4.412;2023-09-19T13:38:06;22.60;99.90
27797;DHT22;15177;50.844;4.412;2023-09-19T13:40:35;22.60;99.90
27797;DHT22;15177;50.844;4.412;2023-09-19T13:43:01;22.60;99.90
27797;DHT22;15177;50.844;4.412;2023-09-19T13:45:27;22.60;99.90
27797;DHT22;15177;50.844;4.412;2023-09-19T13:47:56;22.50;99.90
27797;DHT22;15177;50.844;4.412;2023-09-19T13:50:22;22.40;99.90
27797;DHT22;15177;50.844;4.412;2023-09-19T13:52:50;22.50;99.90
27797;DHT22;15177;50.844;4.412;2023-09-19T13:55:19;22.40;99.90
27797;DHT22;15177;50.844;4.412;2023-09-19T13:57:48;22.30;99.90
27797;DHT22;15177;50.844;4.412;2023-09-19T14:00:20;22.30;99.90
27797;DHT22;15177;50.844;4.412;2023-09-19T14:02:48;22.20;99.90
27797;DHT22;15177;50.844;4.412;2023-09-19T14:05:14;22.20;99.90
27797;DHT22;15177;50.844;4.412;2023-09-19T14:07:42;22.30;99.90
27797;DHT22;15177;50.844;4.412;2023-09-19T14:10:09;22.30;99.90
27797;DHT22;15177;50.844;4.412;2023-09-19T14:12:39;22.20;99.90
27797;DHT22;15177;50.844;4.412;2023-09-19T14:15:10;22.10;99.90
27797;DHT22;15177;50.844;4.412;2023-09-19T14:17:38;22.00;99.90
27797;DHT22;15177;50.844;4.412;2023-09-19T14:20:04;22.00;99.90
27797;DHT22;15177;50.844;4.412;2023-09-19T14:22:32;22.00;99.90
27797;DHT22;15177;50.844;4.412;2023-09-19T14:24:58;22.10;99.90
27797;DHT22;15177;50.844;4.412;2023-09-19T14:27:25;22.00;99.90
27797;DHT22;15177;50.844;4.412;2023-09-19T14:29:50;22.10;99.90
27797;DHT22;15177;50.844;4.412;2023-09-19T14:32:17;22.10;99.90
27797;DHT22;15177;50.844;4.412;2023-09-19T14:34:43;22.30;99.90
27797;DHT22;15177;50.844;4.412;2023-09-19T14:37:09;22.20;99.90
27797;DHT22;15177;50.844;4.412;2023-09-19T14:39:36;22.20;99.90
27797;DHT22;15177;50.844;4.412;2023-09-19T14:42:04;22.30;99.90
27797;DHT22;15177;50.844;4.412;2023-09-19T14:44:30;22.40;99.90
27797;DHT22;15177;50.844;4.412;2023-09-19T14:46:55;22.30;99.90
27797;DHT22;15177;50.844;4.412;2023-09-19T14:49:21;22.20;99.90
27797;DHT22;15177;50.844;4.412;2023-09-19T14:51:47;22.20;99.90
27797;DHT22;15177;50.844;4.412;2023-09-19T14:54:13;22.10;99.90
27797;DHT22;15177;50.844;4.412;2023-09-19T14:56:42;22.00;99.90
27797;DHT22;15177;50.844;4.412;2023-09-19T14:59:08;21.70;99.90
27797;DHT22;15177;50.844;4.412;2023-09-19T15:01:36;21.70;99.90
27797;DHT22;15177;50.844;4.412;2023-09-19T15:04:02;21.70;99.90
27797;DHT22;15177;50.844;4.412;2023-09-19T15:06:27;21.70;99.90
27797;DHT22;15177;50.844;4.412;2023-09-19T15:08:53;21.70;99.90
27797;DHT22;15177;50.844;4.412;2023-09-19T15:11:19;21.70;99.90
27797;DHT22;15177;50.844;4.412;2023-09-19T15:13:46;21.60;99.90
27797;DHT22;15177;50.844;4.412;2023-09-19T15:16:12;21.60;99.90
27797;DHT22;15177;50.844;4.412;2023-09-19T15:18:40;21.70;99.90
27797;DHT22;15177;50.844;4.412;2023-09-19T15:21:08;21.70;99.90
27797;DHT22;15177;50.844;4.412;2023-09-19T15:23:35;21.70;99.90
27797;DHT22;15177;50.844;4.412;2023-09-19T15:26:03;21.60;99.90
27797;DHT22;15177;50.844;4.412;2023-09-19T15:28:29;21.60;99.90
27797;DHT22;15177;50.844;4.412;2023-09-19T15:31:04;21.60;99.90
27797;DHT22;15177;50.844;4.412;2023-09-19T15:33:30;21.50;99.90
27797;DHT22;15177;50.844;4.412;2023-09-19T15:36:15;21.40;99.90
27797;DHT22;15177;50.844;4.412;2023-09-19T15:39:02;21.40;99.90
27797;DHT22;15177;50.844;4.412;2023-09-19T15:41:33;21.30;99.90
27797;DHT22;15177;50.844;4.412;2023-09-19T15:44:01;21.20;99.90
27797;DHT22;15177;50.844;4.412;2023-09-19T15:46:27;21.10;99.90
27797;DHT22;15177;50.844;4.412;2023-09-19T15:48:55;21.00;99.90
27797;DHT22;15177;50.844;4.412;2023-09-19T15:51:21;20.90;99.90
27797;DHT22;15177;50.844;4.412;2023-09-19T15:53:48;20.90;99.90
27797;DHT22;15177;50.844;4.412;2023-09-19T15:56:14;21.00;99.90
27797;DHT22;15177;50.844;4.412;2023-09-19T15:58:44;21.10;99.90
27797;DHT22;15177;50.844;4.412;2023-09-19T16:01:10;21.00;99.90
27797;DHT22;15177;50.844;4.412;2023-09-19T16:03:38;21.00;99.90
27797;DHT22;15177;50.844;4.412;2023-09-19T16:06:11;20.90;99.90
27797;DHT22;15177;50.844;4.412;2023-09-19T16:08:44;20.90;99.90
27797;DHT22;15177;50.844;4.412;2023-09-19T16:11:10;20.90;99.90
27797;DHT22;15177;50.844;4.412;2023-09-19T16:13:40;21.00;99.90
27797;DHT22;15177;50.844;4.412;2023-09-19T16:16:10;21.00;99.90
27797;DHT22;15177;50.844;4.412;2023-09-19T16:18:44;20.90;99.90
27797;DHT22;15177;50.844;4.412;2023-09-19T16:21:10;20.80;99.90
27797;DHT22;15177;50.844;4.412;2023-09-19T16:23:38;20.80;99.90
27797;DHT22;15177;50.844;4.412;2023-09-19T16:26:08;20.70;99.90
27797;DHT22;15177;50.844;4.412;2023-09-19T16:28:35;20.70;99.90
27797;DHT22;15177;50.844;4.412;2023-09-19T16:31:03;20.60;99.90
27797;DHT22;15177;50.844;4.412;2023-09-19T16:33:34;20.70;99.90
27797;DHT22;15177;50.844;4.412;2023-09-19T16:36:00;20.70;99.90
27797;DHT22;15177;50.844;4.412;2023-09-19T16:38:26;20.70;99.90